Nearby METAR Reports

 

KBFI - Seattle/Boeing, Washington, USA
Distance from station: S 10mi, 16km
Updated: Sun, 25-Aug-2019 8:04am PDT
Overcast
Overcast
 Wind from E
Wind: E 7 mph , 11 km/h
Temperature: 63°F , 17°C
Dew Point: 52°F , 11°C
Humidity: 68%
Barometer: 30.15 inHg , 1021 hPa
Clouds: Overcast
Visibility: 10 miles , 16 km
Cloud details: Mostly cloudy 2800 ft
Overcast 4500 ft
2019/08/25 15:04 KBFI 251504Z 09006KT 10SM BKN028 OVC045 17/11 A3015 RMK AO2 T01720106
KRNT - Renton, Washington, USA
Distance from station: SSE 14mi, 23km
Updated: Sun, 25-Aug-2019 7:53am PDT
Mostly cloudy
Mostly cloudy
 Wind from calm
Wind: Calm
Temperature: 63°F , 17°C
Dew Point: 52°F , 11°C
Humidity: 68%
Barometer: 30.15 inHg , 1021 hPa
Clouds: Mostly cloudy
Visibility: 7 miles , 11 km
Cloud details: Few Clouds 3500 ft
Mostly cloudy 4700 ft
2019/08/25 14:53 KRNT 251453Z 00000KT 7SM FEW035 BKN047 17/11 A3015 RMK AO2 SLP213 T01670111 53024
 
KPAE - Everett, Washington, USA
Distance from station: N 15mi, 25km
Updated: Sun, 25-Aug-2019 7:53am PDT
Partly cloudy
Partly cloudy
 Wind from varies
Wind: varies 3 mph , 6 km/h
Temperature: 61°F , 16°C
Dew Point: 52°F , 11°C
Humidity: 72%
Barometer: 30.16 inHg , 1021.3 hPa
Clouds: Partly cloudy
Visibility: 10 miles , 16 km
Cloud details: Partly cloudy 1900 ft
2019/08/25 14:53 KPAE 251453Z VRB03KT 10SM SCT019 16/11 A3016 RMK AO2 SLP210 T01560111 51014
KSEA - Seattle/Metro, Washington, USA
Distance from station: S 17mi, 27km
Updated: Sun, 25-Aug-2019 7:53am PDT
Mostly cloudy
Mostly cloudy
 Wind from ENE
Wind: ENE 6 mph , 9 km/h
Temperature: 63°F , 17°C
Dew Point: 52°F , 11°C
Humidity: 68%
Barometer: 30.15 inHg , 1021 hPa
Clouds: Mostly cloudy
Visibility: 10 miles , 16 km
Cloud details: Partly cloudy 2900 ft
Mostly cloudy 4300 ft
Mostly cloudy 6000 ft
2019/08/25 14:53 KSEA 251453Z 06005KT 10SM SCT029 BKN043 BKN060 17/11 A3015 RMK AO2 SLP215 T01720106 53022
 
KPWT - Bremerton Ntnl, Washington, USA
Distance from station: SW 24mi, 39km
Updated: Sun, 25-Aug-2019 7:56am PDT
Overcast
Overcast
 Wind from E
Wind: E 3 mph , 6 km/h
Temperature: 61°F , 16°C
Dew Point: 52°F , 11°C
Humidity: 72%
Barometer: 30.15 inHg , 1021 hPa
Clouds: Overcast
Visibility: 10 miles , 16 km
Cloud details: Overcast 2600 ft
2019/08/25 14:56 KPWT 251456Z AUTO 10003KT 10SM OVC026 16/11 A3015 RMK AO2 SLP225 T01560111 53020
KTIW - Tacoma, Washington, USA
Distance from station: SSW 32mi, 52km
Updated: Sun, 25-Aug-2019 7:59am PDT
Overcast
Overcast
 Wind from S
Wind: S 5 mph , 7 km/h
Temperature: 57°F , 14°C
Dew Point: 54°F , 12°C
Humidity: 88%
Barometer: 30.16 inHg , 1021.3 hPa
Clouds: Overcast
Visibility: 10 miles , 16 km
Cloud details: Partly cloudy 1000 ft
Overcast 2600 ft
2019/08/25 14:59 KTIW 251459Z 19004KT 10SM SCT010 OVC026 14/12 A3016 RMK AO2 T01390117
 
KAWO - Arlington Muni, Washington, USA
Distance from station: N 33mi, 54km
Updated: Sun, 25-Aug-2019 8:05am PDT
Overcast
Overcast
 Wind from calm
Wind: Calm
Temperature: 57°F , 14°C
Dew Point: 54°F , 12°C
Humidity: 88%
Barometer: 30.16 inHg , 1021.3 hPa
Clouds: Overcast
Visibility: 10 miles , 16 km
Cloud details: Overcast 1700 ft
2019/08/25 15:05 KAWO 251505Z AUTO 00000KT 10SM OVC017 14/12 A3016 RMK AO2
KTCM - Tacoma/Mc Chord, Washington, USA
Distance from station: S 41mi, 65km
Updated: Sun, 25-Aug-2019 7:58am PDT
Overcast
Overcast
 Wind from WSW
Wind: WSW 5 mph , 7 km/h
Temperature: 59°F , 15°C
Dew Point: 57°F , 14°C
Humidity: 94%
Barometer: 30.16 inHg , 1021.3 hPa
Clouds: Overcast
Visibility: 10 miles , 16 km
Cloud details: Overcast 2100 ft
2019/08/25 14:58 KTCM 251458Z AUTO 25004KT 10SM OVC021 15/14 A3016 RMK AO2 SLP216 T01510138 52023 $
 
KPLU - Puyallup/Thun, Washington, USA
Distance from station: S 41mi, 66km
Updated: Sun, 25-Aug-2019 8:15am PDT
Overcast
Overcast
 Wind from calm
Wind: Calm
Temperature: 59°F , 15°C
Dew Point: 55°F , 13°C
Humidity: 88%
Barometer: 30.16 inHg , 1021.3 hPa
Clouds: Overcast
Visibility: 10 miles , 16 km
Cloud details: Few Clouds 2200 ft
Overcast 3500 ft
2019/08/25 15:15 KPLU 251515Z AUTO 00000KT 10SM FEW022 OVC035 15/13 A3016 RMK AO2
KGRF - Fort Lewis/Gray, Washington, USA
Distance from station: SSW 45mi, 72km
Updated: Sun, 25-Aug-2019 7:58am PDT
Mostly cloudy
Mostly cloudy
 Wind from S
Wind: S 5 mph , 7 km/h
Temperature: 59°F , 15°C
Dew Point: 57°F , 14°C
Humidity: 94%
Barometer: 30.15 inHg , 1021 hPa
Clouds: Mostly cloudy
Visibility: 10 miles , 16 km
Cloud details: Mostly cloudy 2800 ft
Mostly cloudy 4000 ft
2019/08/25 14:58 KGRF 251458Z AUTO 19004KT 10SM BKN028 BKN040 15/14 A3015 RMK AO2 BKN028 V OVC SLP213 T01470141 52022 $
 
KNUW - Whidbey Is. Nas, Washington, USA
Distance from station: NNW 48mi, 77km
Updated: Sun, 25-Aug-2019 7:56am PDT
Mostly cloudy
Mostly cloudy
 Wind from SSW
Wind: SSW 7 mph , 11 km/h
Temperature: 61°F , 16°C
Dew Point: 54°F , 12°C
Humidity: 77%
Barometer: 30.17 inHg , 1021.7 hPa
Clouds: Mostly cloudy
Visibility: 10 miles , 16 km
Cloud details: Partly cloudy 2500 ft
Mostly cloudy 3500 ft
Mostly cloudy 7000 ft
2019/08/25 14:56 KNUW 251456Z 21006KT 10SM SCT025 BKN035 BKN070 16/12 A3017 RMK AO2 SLP216 T01610117 53020 $
KSHN - Shelton, Washington, USA
Distance from station: SW 50mi, 80km
Updated: Sun, 25-Aug-2019 7:53am PDT
Overcast
Overcast
 Wind from calm
Wind: Calm
Temperature: 57°F , 14°C
Dew Point: 52°F , 11°C
Humidity: 82%
Barometer: 30.13 inHg , 1020.3 hPa
Clouds: Overcast
Visibility: 7 miles , 11 km
Cloud details: Mostly cloudy 700 ft
Overcast 1900 ft
2019/08/25 14:53 KSHN 251453Z AUTO 00000KT 7SM BKN007 OVC019 14/11 A3013 RMK AO2 SLP203 T01440111 53021